sensor_id;sensor_type;location;lat;lon;timestamp;temperature;humidity
14006;DHT22;7078;51.542;7.314;2023-06-19T00:01:47;23.40;71.60
14006;DHT22;7078;51.542;7.314;2023-06-19T00:04:13;23.30;72.30
14006;DHT22;7078;51.542;7.314;2023-06-19T00:06:38;23.40;72.80
14006;DHT22;7078;51.542;7.314;2023-06-19T00:09:04;23.30;74.00
14006;DHT22;7078;51.542;7.314;2023-06-19T00:11:30;23.30;74.50
14006;DHT22;7078;51.542;7.314;2023-06-19T00:13:55;23.30;75.00
14006;DHT22;7078;51.542;7.314;2023-06-19T00:16:21;23.30;75.90
14006;DHT22;7078;51.542;7.314;2023-06-19T00:18:47;23.30;77.20
14006;DHT22;7078;51.542;7.314;2023-06-19T00:21:12;23.20;78.80
14006;DHT22;7078;51.542;7.314;2023-06-19T00:23:38;23.20;79.60
14006;DHT22;7078;51.542;7.314;2023-06-19T00:26:04;23.20;80.90
14006;DHT22;7078;51.542;7.314;2023-06-19T00:28:31;23.10;82.00
14006;DHT22;7078;51.542;7.314;2023-06-19T00:30:56;23.10;82.90
14006;DHT22;7078;51.542;7.314;2023-06-19T00:33:22;23.10;83.80
14006;DHT22;7078;51.542;7.314;2023-06-19T00:35:50;23.10;84.90
14006;DHT22;7078;51.542;7.314;2023-06-19T00:38:16;23.00;86.30
14006;DHT22;7078;51.542;7.314;2023-06-19T00:40:41;23.00;88.40
14006;DHT22;7078;51.542;7.314;2023-06-19T00:43:07;22.90;90.20
14006;DHT22;7078;51.542;7.314;2023-06-19T00:45:33;22.90;91.30
14006;DHT22;7078;51.542;7.314;2023-06-19T00:47:59;22.80;92.70
14006;DHT22;7078;51.542;7.314;2023-06-19T00:50:26;22.70;94.00
14006;DHT22;7078;51.542;7.314;2023-06-19T00:52:53;22.70;95.00
14006;DHT22;7078;51.542;7.314;2023-06-19T00:55:21;22.60;96.60
14006;DHT22;7078;51.542;7.314;2023-06-19T00:57:46;22.60;97.70
14006;DHT22;7078;51.542;7.314;2023-06-19T01:00:13;22.60;99.60
14006;DHT22;7078;51.542;7.314;2023-06-19T01:02:40;22.60;99.90
14006;DHT22;7078;51.542;7.314;2023-06-19T01:05:06;22.50;99.90
14006;DHT22;7078;51.542;7.314;2023-06-19T01:10:15;22.50;99.90
14006;DHT22;7078;51.542;7.314;2023-06-19T01:12:57;22.40;99.90
14006;DHT22;7078;51.542;7.314;2023-06-19T01:15:24;22.40;99.90
14006;DHT22;7078;51.542;7.314;2023-06-19T01:17:51;22.40;99.90
14006;DHT22;7078;51.542;7.314;2023-06-19T01:20:18;22.30;99.90
14006;DHT22;7078;51.542;7.314;2023-06-19T01:22:43;22.30;99.90
14006;DHT22;7078;51.542;7.314;2023-06-19T01:25:09;22.30;99.90
14006;DHT22;7078;51.542;7.314;2023-06-19T01:27:36;22.20;99.90
14006;DHT22;7078;51.542;7.314;2023-06-19T01:30:03;22.20;99.90
14006;DHT22;7078;51.542;7.314;2023-06-19T01:35:16;22.10;99.90
14006;DHT22;7078;51.542;7.314;2023-06-19T01:37:43;22.10;99.90
14006;DHT22;7078;51.542;7.314;2023-06-19T01:40:11;22.10;99.90
14006;DHT22;7078;51.542;7.314;2023-06-19T01:42:39;22.10;99.90
14006;DHT22;7078;51.542;7.314;2023-06-19T01:45:05;22.10;99.90
14006;DHT22;7078;51.542;7.314;2023-06-19T01:47:31;22.00;99.90
14006;DHT22;7078;51.542;7.314;2023-06-19T01:49:57;22.00;99.90
14006;DHT22;7078;51.542;7.314;2023-06-19T01:52:24;22.00;99.90
14006;DHT22;7078;51.542;7.314;2023-06-19T01:54:50;21.90;99.90
14006;DHT22;7078;51.542;7.314;2023-06-19T01:57:16;21.90;99.90
14006;DHT22;7078;51.542;7.314;2023-06-19T01:59:41;21.90;99.90
14006;DHT22;7078;51.542;7.314;2023-06-19T02:02:08;21.90;99.90
14006;DHT22;7078;51.542;7.314;2023-06-19T02:04:34;21.90;99.90
14006;DHT22;7078;51.542;7.314;2023-06-19T02:07:00;21.80;99.90
14006;DHT22;7078;51.542;7.314;2023-06-19T02:09:25;21.80;99.90
14006;DHT22;7078;51.542;7.314;2023-06-19T02:11:51;21.80;99.90
14006;DHT22;7078;51.542;7.314;2023-06-19T02:14:16;21.70;99.90
14006;DHT22;7078;51.542;7.314;2023-06-19T02:16:43;21.70;99.90
14006;DHT22;7078;51.542;7.314;2023-06-19T02:19:11;21.60;99.90
14006;DHT22;7078;51.542;7.314;2023-06-19T02:21:37;21.70;99.90
14006;DHT22;7078;51.542;7.314;2023-06-19T02:24:03;21.60;99.90
14006;DHT22;7078;51.542;7.314;2023-06-19T02:26:29;21.70;99.90
14006;DHT22;7078;51.542;7.314;2023-06-19T02:28:55;21.70;99.90
14006;DHT22;7078;51.542;7.314;2023-06-19T02:31:24;21.60;99.90
14006;DHT22;7078;51.542;7.314;2023-06-19T02:33:50;21.70;99.90
14006;DHT22;7078;51.542;7.314;2023-06-19T02:36:16;21.70;99.90
14006;DHT22;7078;51.542;7.314;2023-06-19T02:38:48;21.80;99.90
14006;DHT22;7078;51.542;7.314;2023-06-19T02:41:14;21.80;99.90
14006;DHT22;7078;51.542;7.314;2023-06-19T02:43:43;21.80;99.90
14006;DHT22;7078;51.542;7.314;2023-06-19T02:46:09;21.80;99.90
14006;DHT22;7078;51.542;7.314;2023-06-19T02:48:35;21.80;99.90
14006;DHT22;7078;51.542;7.314;2023-06-19T02:51:01;21.90;99.90
14006;DHT22;7078;51.542;7.314;2023-06-19T02:53:26;22.00;99.90
14006;DHT22;7078;51.542;7.314;2023-06-19T02:55:52;22.10;99.90
14006;DHT22;7078;51.542;7.314;2023-06-19T02:58:17;22.10;99.90
14006;DHT22;7078;51.542;7.314;2023-06-19T03:00:44;22.20;99.90
14006;DHT22;7078;51.542;7.314;2023-06-19T03:03:09;22.20;99.90
14006;DHT22;7078;51.542;7.314;2023-06-19T03:05:35;22.20;99.90
14006;DHT22;7078;51.542;7.314;2023-06-19T03:08:00;22.20;99.90
14006;DHT22;7078;51.542;7.314;2023-06-19T03:10:26;22.20;99.90
14006;DHT22;7078;51.542;7.314;2023-06-19T03:12:51;22.20;99.90
14006;DHT22;7078;51.542;7.314;2023-06-19T03:15:17;22.10;99.90
14006;DHT22;7078;51.542;7.314;2023-06-19T03:17:43;22.20;99.90
14006;DHT22;7078;51.542;7.314;2023-06-19T03:20:08;22.00;99.90
14006;DHT22;7078;51.542;7.314;2023-06-19T03:22:40;22.10;99.90
14006;DHT22;7078;51.542;7.314;2023-06-19T03:25:06;22.10;99.90
14006;DHT22;7078;51.542;7.314;2023-06-19T03:27:33;22.20;99.90
14006;DHT22;7078;51.542;7.314;2023-06-19T03:29:58;22.40;99.90
14006;DHT22;7078;51.542;7.314;2023-06-19T03:32:24;22.50;99.90
14006;DHT22;7078;51.542;7.314;2023-06-19T03:34:49;22.50;99.90
14006;DHT22;7078;51.542;7.314;2023-06-19T03:37:15;22.60;99.90
14006;DHT22;7078;51.542;7.314;2023-06-19T03:39:41;22.60;99.90
14006;DHT22;7078;51.542;7.314;2023-06-19T03:42:07;22.60;99.90
14006;DHT22;7078;51.542;7.314;2023-06-19T03:44:33;22.50;99.90
14006;DHT22;7078;51.542;7.314;2023-06-19T03:46:58;22.50;99.90
14006;DHT22;7078;51.542;7.314;2023-06-19T03:49:24;22.40;99.90
14006;DHT22;7078;51.542;7.314;2023-06-19T03:51:49;22.30;99.90
14006;DHT22;7078;51.542;7.314;2023-06-19T03:54:15;22.30;99.90
14006;DHT22;7078;51.542;7.314;2023-06-19T03:56:41;22.20;99.90
14006;DHT22;7078;51.542;7.314;2023-06-19T03:59:06;22.10;99.90
14006;DHT22;7078;51.542;7.314;2023-06-19T04:01:32;22.10;99.90
14006;DHT22;7078;51.542;7.314;2023-06-19T04:03:59;22.00;99.90
14006;DHT22;7078;51.542;7.314;2023-06-19T04:06:25;21.90;99.90
14006;DHT22;7078;51.542;7.314;2023-06-19T04:08:52;21.90;99.90
14006;DHT22;7078;51.542;7.314;2023-06-19T04:11:17;22.00;99.90
14006;DHT22;7078;51.542;7.314;2023-06-19T04:13:43;21.80;99.90
14006;DHT22;7078;51.542;7.314;2023-06-19T04:16:08;21.80;99.90
14006;DHT22;7078;51.542;7.314;2023-06-19T04:18:34;21.70;99.90
14006;DHT22;7078;51.542;7.314;2023-06-19T04:21:00;21.50;99.90
14006;DHT22;7078;51.542;7.314;2023-06-19T04:23:25;21.60;99.90
14006;DHT22;7078;51.542;7.314;2023-06-19T04:25:51;21.60;99.90
14006;DHT22;7078;51.542;7.314;2023-06-19T04:28:16;21.60;99.90
14006;DHT22;7078;51.542;7.314;2023-06-19T04:30:42;21.60;99.90
14006;DHT22;7078;51.542;7.314;2023-06-19T04:33:08;21.50;99.90
14006;DHT22;7078;51.542;7.314;2023-06-19T04:35:33;21.50;99.90
14006;DHT22;7078;51.542;7.314;2023-06-19T04:38:08;21.40;99.90
14006;DHT22;7078;51.542;7.314;2023-06-19T04:40:34;21.40;99.90
14006;DHT22;7078;51.542;7.314;2023-06-19T04:43:01;21.40;99.90
14006;DHT22;7078;51.542;7.314;2023-06-19T04:45:28;21.30;99.90
14006;DHT22;7078;51.542;7.314;2023-06-19T04:47:53;21.30;99.90
14006;DHT22;7078;51.542;7.314;2023-06-19T04:50:20;21.20;99.90
14006;DHT22;7078;51.542;7.314;2023-06-19T04:52:45;21.30;99.90
14006;DHT22;7078;51.542;7.314;2023-06-19T04:55:12;21.30;99.90
14006;DHT22;7078;51.542;7.314;2023-06-19T04:57:38;21.30;99.90
14006;DHT22;7078;51.542;7.314;2023-06-19T05:00:05;21.30;99.90
14006;DHT22;7078;51.542;7.314;2023-06-19T05:02:35;21.30;99.90
14006;DHT22;7078;51.542;7.314;2023-06-19T05:05:01;21.20;99.90
14006;DHT22;7078;51.542;7.314;2023-06-19T05:07:31;21.20;99.90
14006;DHT22;7078;51.542;7.314;2023-06-19T05:09:57;21.00;99.90
14006;DHT22;7078;51.542;7.314;2023-06-19T05:12:23;21.10;99.90
14006;DHT22;7078;51.542;7.314;2023-06-19T05:14:48;21.10;99.90
14006;DHT22;7078;51.542;7.314;2023-06-19T05:17:14;21.10;99.90
14006;DHT22;7078;51.542;7.314;2023-06-19T05:19:40;21.10;99.90
14006;DHT22;7078;51.542;7.314;2023-06-19T05:22:05;21.10;99.90
14006;DHT22;7078;51.542;7.314;2023-06-19T05:24:32;21.10;99.90
14006;DHT22;7078;51.542;7.314;2023-06-19T05:26:57;21.20;99.90
14006;DHT22;7078;51.542;7.314;2023-06-19T05:29:23;21.20;99.90
14006;DHT22;7078;51.542;7.314;2023-06-19T05:31:48;21.10;99.90
14006;DHT22;7078;51.542;7.314;2023-06-19T05:34:14;21.10;99.90
14006;DHT22;7078;51.542;7.314;2023-06-19T05:36:39;21.20;99.90
14006;DHT22;7078;51.542;7.314;2023-06-19T05:39:05;21.20;99.90
14006;DHT22;7078;51.542;7.314;2023-06-19T05:41:30;21.30;99.90
14006;DHT22;7078;51.542;7.314;2023-06-19T05:43:56;21.20;99.90
14006;DHT22;7078;51.542;7.314;2023-06-19T05:46:22;21.20;99.90
14006;DHT22;7078;51.542;7.314;2023-06-19T05:48:48;21.20;99.90
14006;DHT22;7078;51.542;7.314;2023-06-19T05:51:14;21.20;99.90
14006;DHT22;7078;51.542;7.314;2023-06-19T05:53:39;21.30;99.90
14006;DHT22;7078;51.542;7.314;2023-06-19T05:56:05;21.30;99.90
14006;DHT22;7078;51.542;7.314;2023-06-19T05:58:31;21.50;99.90
14006;DHT22;7078;51.542;7.314;2023-06-19T06:00:56;21.40;99.90
14006;DHT22;7078;51.542;7.314;2023-06-19T06:03:26;21.30;99.90
14006;DHT22;7078;51.542;7.314;2023-06-19T06:05:53;21.20;99.90
14006;DHT22;7078;51.542;7.314;2023-06-19T06:08:18;21.10;99.90
14006;DHT22;7078;51.542;7.314;2023-06-19T06:10:44;21.10;99.90
14006;DHT22;7078;51.542;7.314;2023-06-19T06:13:10;21.20;99.90
14006;DHT22;7078;51.542;7.314;2023-06-19T06:15:35;21.30;99.90
14006;DHT22;7078;51.542;7.314;2023-06-19T06:18:01;21.30;99.90
14006;DHT22;7078;51.542;7.314;2023-06-19T06:20:28;21.50;99.90
14006;DHT22;7078;51.542;7.314;2023-06-19T06:22:54;21.60;99.90
14006;DHT22;7078;51.542;7.314;2023-06-19T06:25:20;21.50;99.90
14006;DHT22;7078;51.542;7.314;2023-06-19T06:27:46;21.80;99.90
14006;DHT22;7078;51.542;7.314;2023-06-19T06:30:12;21.90;99.90
14006;DHT22;7078;51.542;7.314;2023-06-19T06:32:38;21.90;99.90
14006;DHT22;7078;51.542;7.314;2023-06-19T06:35:04;21.90;99.90
14006;DHT22;7078;51.542;7.314;2023-06-19T06:37:29;22.00;99.90
14006;DHT22;7078;51.542;7.314;2023-06-19T06:39:55;21.90;99.90
14006;DHT22;7078;51.542;7.314;2023-06-19T06:42:20;21.90;99.90
14006;DHT22;7078;51.542;7.314;2023-06-19T06:44:46;21.90;99.90
14006;DHT22;7078;51.542;7.314;2023-06-19T06:47:12;21.80;99.90
14006;DHT22;7078;51.542;7.314;2023-06-19T06:49:37;21.70;99.90
14006;DHT22;7078;51.542;7.314;2023-06-19T06:52:06;21.90;99.90
14006;DHT22;7078;51.542;7.314;2023-06-19T06:54:32;21.90;99.90
14006;DHT22;7078;51.542;7.314;2023-06-19T06:56:58;21.90;99.90
14006;DHT22;7078;51.542;7.314;2023-06-19T06:59:26;22.00;99.90
14006;DHT22;7078;51.542;7.314;2023-06-19T07:01:52;22.20;99.90
14006;DHT22;7078;51.542;7.314;2023-06-19T07:04:18;22.40;99.90
14006;DHT22;7078;51.542;7.314;2023-06-19T07:06:44;22.40;99.90
14006;DHT22;7078;51.542;7.314;2023-06-19T07:09:10;22.50;99.90
14006;DHT22;7078;51.542;7.314;2023-06-19T07:11:35;22.60;99.90
14006;DHT22;7078;51.542;7.314;2023-06-19T07:14:02;22.80;99.90
14006;DHT22;7078;51.542;7.314;2023-06-19T07:16:28;22.90;99.90
14006;DHT22;7078;51.542;7.314;2023-06-19T07:18:53;22.70;99.90
14006;DHT22;7078;51.542;7.314;2023-06-19T07:21:19;22.60;99.90
14006;DHT22;7078;51.542;7.314;2023-06-19T07:23:45;22.50;99.90
14006;DHT22;7078;51.542;7.314;2023-06-19T07:26:13;22.50;99.90
14006;DHT22;7078;51.542;7.314;2023-06-19T07:28:40;22.50;99.90
14006;DHT22;7078;51.542;7.314;2023-06-19T07:31:05;22.40;99.90
14006;DHT22;7078;51.542;7.314;2023-06-19T07:33:31;22.40;99.90
14006;DHT22;7078;51.542;7.314;2023-06-19T07:35:57;22.30;99.90
14006;DHT22;7078;51.542;7.314;2023-06-19T07:38:22;22.30;99.90
14006;DHT22;7078;51.542;7.314;2023-06-19T07:40:48;22.20;99.90
14006;DHT22;7078;51.542;7.314;2023-06-19T07:43:14;21.90;99.90
14006;DHT22;7078;51.542;7.314;2023-06-19T07:45:40;21.90;99.90
14006;DHT22;7078;51.542;7.314;2023-06-19T07:48:05;21.90;99.90
14006;DHT22;7078;51.542;7.314;2023-06-19T07:50:31;21.60;99.90
14006;DHT22;7078;51.542;7.314;2023-06-19T07:52:57;21.70;99.90
14006;DHT22;7078;51.542;7.314;2023-06-19T07:55:23;21.60;99.90
14006;DHT22;7078;51.542;7.314;2023-06-19T07:57:49;21.50;99.90
14006;DHT22;7078;51.542;7.314;2023-06-19T08:00:15;21.40;99.90
14006;DHT22;7078;51.542;7.314;2023-06-19T08:02:41;21.50;99.90
14006;DHT22;7078;51.542;7.314;2023-06-19T08:05:07;21.50;99.90
14006;DHT22;7078;51.542;7.314;2023-06-19T08:07:34;21.60;99.90
14006;DHT22;7078;51.542;7.314;2023-06-19T08:09:59;21.60;99.90
14006;DHT22;7078;51.542;7.314;2023-06-19T08:12:25;21.70;99.90
14006;DHT22;7078;51.542;7.314;2023-06-19T08:14:51;21.70;99.90
14006;DHT22;7078;51.542;7.314;2023-06-19T08:17:16;21.80;99.90
14006;DHT22;7078;51.542;7.314;2023-06-19T08:19:42;21.70;99.90
14006;DHT22;7078;51.542;7.314;2023-06-19T08:22:08;21.60;99.90
14006;DHT22;7078;51.542;7.314;2023-06-19T08:24:35;21.50;99.90
14006;DHT22;7078;51.542;7.314;2023-06-19T08:27:02;21.60;99.90
14006;DHT22;7078;51.542;7.314;2023-06-19T08:29:27;21.70;99.90
14006;DHT22;7078;51.542;7.314;2023-06-19T08:31:53;21.90;99.90
14006;DHT22;7078;51.542;7.314;2023-06-19T08:34:18;21.90;99.90
14006;DHT22;7078;51.542;7.314;2023-06-19T08:36:44;22.10;99.90
14006;DHT22;7078;51.542;7.314;2023-06-19T08:39:09;22.20;99.90
14006;DHT22;7078;51.542;7.314;2023-06-19T08:41:38;22.30;99.90
14006;DHT22;7078;51.542;7.314;2023-06-19T08:44:07;22.40;99.90
14006;DHT22;7078;51.542;7.314;2023-06-19T08:46:33;22.70;99.90
14006;DHT22;7078;51.542;7.314;2023-06-19T08:49:00;22.90;99.90
14006;DHT22;7078;51.542;7.314;2023-06-19T08:51:27;23.00;99.90
14006;DHT22;7078;51.542;7.314;2023-06-19T08:54:00;23.20;99.90
14006;DHT22;7078;51.542;7.314;2023-06-19T08:56:25;23.30;99.90
14006;DHT22;7078;51.542;7.314;2023-06-19T08:58:51;23.20;99.90
14006;DHT22;7078;51.542;7.314;2023-06-19T09:01:17;23.00;99.90
14006;DHT22;7078;51.542;7.314;2023-06-19T09:03:43;23.10;99.90
14006;DHT22;7078;51.542;7.314;2023-06-19T09:06:16;23.00;99.90
14006;DHT22;7078;51.542;7.314;2023-06-19T09:08:42;22.90;99.90
14006;DHT22;7078;51.542;7.314;2023-06-19T09:11:07;22.90;99.90
14006;DHT22;7078;51.542;7.314;2023-06-19T09:13:33;22.40;99.90
14006;DHT22;7078;51.542;7.314;2023-06-19T09:16:04;22.50;99.90
14006;DHT22;7078;51.542;7.314;2023-06-19T09:18:31;22.30;99.90
14006;DHT22;7078;51.542;7.314;2023-06-19T09:20:57;22.50;99.90
14006;DHT22;7078;51.542;7.314;2023-06-19T09:23:24;22.60;99.90
14006;DHT22;7078;51.542;7.314;2023-06-19T09:25:51;22.60;99.90
14006;DHT22;7078;51.542;7.314;2023-06-19T09:28:25;23.00;99.90
14006;DHT22;7078;51.542;7.314;2023-06-19T09:31:01;23.10;99.90
14006;DHT22;7078;51.542;7.314;2023-06-19T09:33:29;23.10;99.90
14006;DHT22;7078;51.542;7.314;2023-06-19T09:35:56;23.50;99.90
14006;DHT22;7078;51.542;7.314;2023-06-19T09:38:34;23.70;99.90
14006;DHT22;7078;51.542;7.314;2023-06-19T09:41:02;23.90;99.90
14006;DHT22;7078;51.542;7.314;2023-06-19T09:43:41;23.70;99.90
14006;DHT22;7078;51.542;7.314;2023-06-19T09:46:07;23.80;99.90
14006;DHT22;7078;51.542;7.314;2023-06-19T09:48:35;23.90;99.90
14006;DHT22;7078;51.542;7.314;2023-06-19T09:51:23;24.00;99.90
14006;DHT22;7078;51.542;7.314;2023-06-19T09:53:49;24.20;99.90
14006;DHT22;7078;51.542;7.314;2023-06-19T09:56:16;24.40;99.90
14006;DHT22;7078;51.542;7.314;2023-06-19T09:58:48;24.50;99.90
14006;DHT22;7078;51.542;7.314;2023-06-19T10:01:15;24.30;99.90
14006;DHT22;7078;51.542;7.314;2023-06-19T10:03:44;24.60;99.90
14006;DHT22;7078;51.542;7.314;2023-06-19T10:06:14;24.90;99.90
14006;DHT22;7078;51.542;7.314;2023-06-19T10:08:43;24.90;99.90
14006;DHT22;7078;51.542;7.314;2023-06-19T10:11:09;25.00;99.90
14006;DHT22;7078;51.542;7.314;2023-06-19T10:13:40;24.90;99.90
14006;DHT22;7078;51.542;7.314;2023-06-19T10:16:07;25.00;99.90
14006;DHT22;7078;51.542;7.314;2023-06-19T10:18:44;25.00;99.90
14006;DHT22;7078;51.542;7.314;2023-06-19T10:21:21;24.90;99.90
14006;DHT22;7078;51.542;7.314;2023-06-19T10:23:55;24.80;99.90
14006;DHT22;7078;51.542;7.314;2023-06-19T10:26:35;24.80;99.90
14006;DHT22;7078;51.542;7.314;2023-06-19T10:29:01;25.10;99.90
14006;DHT22;7078;51.542;7.314;2023-06-19T10:31:27;25.20;99.90
14006;DHT22;7078;51.542;7.314;2023-06-19T10:33:56;25.50;98.50
14006;DHT22;7078;51.542;7.314;2023-06-19T10:36:23;25.80;99.50
14006;DHT22;7078;51.542;7.314;2023-06-19T10:38:50;25.70;95.00
14006;DHT22;7078;51.542;7.314;2023-06-19T10:41:21;25.60;99.40
14006;DHT22;7078;51.542;7.314;2023-06-19T10:43:56;25.60;96.60
14006;DHT22;7078;51.542;7.314;2023-06-19T10:46:24;25.40;95.80
14006;DHT22;7078;51.542;7.314;2023-06-19T10:48:50;25.30;98.80
14006;DHT22;7078;51.542;7.314;2023-06-19T10:51:19;25.20;98.70
14006;DHT22;7078;51.542;7.314;2023-06-19T10:53:45;25.30;97.10
14006;DHT22;7078;51.542;7.314;2023-06-19T10:56:10;25.50;96.70
14006;DHT22;7078;51.542;7.314;2023-06-19T10:58:36;25.60;93.90
14006;DHT22;7078;51.542;7.314;2023-06-19T11:01:01;25.80;95.10
14006;DHT22;7078;51.542;7.314;2023-06-19T11:03:28;25.90;95.80
14006;DHT22;7078;51.542;7.314;2023-06-19T11:05:53;26.00;92.40
14006;DHT22;7078;51.542;7.314;2023-06-19T11:08:21;26.20;88.50
14006;DHT22;7078;51.542;7.314;2023-06-19T11:10:46;26.50;88.40
14006;DHT22;7078;51.542;7.314;2023-06-19T11:13:19;26.50;85.80
14006;DHT22;7078;51.542;7.314;2023-06-19T11:15:46;26.50;84.50
14006;DHT22;7078;51.542;7.314;2023-06-19T11:18:15;26.40;86.60
14006;DHT22;7078;51.542;7.314;2023-06-19T11:20:50;26.20;86.20
14006;DHT22;7078;51.542;7.314;2023-06-19T11:23:17;26.10;88.60
14006;DHT22;7078;51.542;7.314;2023-06-19T11:25:43;26.10;87.90
14006;DHT22;7078;51.542;7.314;2023-06-19T11:28:13;26.20;90.40
14006;DHT22;7078;51.542;7.314;2023-06-19T11:30:39;26.50;84.50
14006;DHT22;7078;51.542;7.314;2023-06-19T11:33:16;26.60;82.40
14006;DHT22;7078;51.542;7.314;2023-06-19T11:35:47;26.80;82.80
14006;DHT22;7078;51.542;7.314;2023-06-19T11:38:17;26.70;74.50
14006;DHT22;7078;51.542;7.314;2023-06-19T11:40:43;26.70;74.20
14006;DHT22;7078;51.542;7.314;2023-06-19T11:43:08;26.70;80.60
14006;DHT22;7078;51.542;7.314;2023-06-19T11:45:45;26.80;76.20
14006;DHT22;7078;51.542;7.314;2023-06-19T11:48:10;26.70;76.60
14006;DHT22;7078;51.542;7.314;2023-06-19T11:50:38;26.90;79.50
14006;DHT22;7078;51.542;7.314;2023-06-19T11:53:03;26.80;75.70
14006;DHT22;7078;51.542;7.314;2023-06-19T11:55:29;26.90;80.70
14006;DHT22;7078;51.542;7.314;2023-06-19T11:57:55;26.90;76.60
14006;DHT22;7078;51.542;7.314;2023-06-19T12:00:20;27.10;76.10
14006;DHT22;7078;51.542;7.314;2023-06-19T12:02:46;27.40;74.80
14006;DHT22;7078;51.542;7.314;2023-06-19T12:05:12;27.50;70.50
14006;DHT22;7078;51.542;7.314;2023-06-19T12:07:38;27.80;65.50
14006;DHT22;7078;51.542;7.314;2023-06-19T12:10:04;28.00;65.40
14006;DHT22;7078;51.542;7.314;2023-06-19T12:12:35;28.20;61.60
14006;DHT22;7078;51.542;7.314;2023-06-19T12:15:01;28.30;62.50
14006;DHT22;7078;51.542;7.314;2023-06-19T12:17:27;28.20;61.20
14006;DHT22;7078;51.542;7.314;2023-06-19T12:19:52;28.30;58.80
14006;DHT22;7078;51.542;7.314;2023-06-19T12:22:18;28.40;60.40
14006;DHT22;7078;51.542;7.314;2023-06-19T12:24:44;28.50;61.10
14006;DHT22;7078;51.542;7.314;2023-06-19T12:27:09;28.60;59.80
14006;DHT22;7078;51.542;7.314;2023-06-19T12:29:35;28.40;58.10
14006;DHT22;7078;51.542;7.314;2023-06-19T12:32:02;28.30;57.60
14006;DHT22;7078;51.542;7.314;2023-06-19T12:34:28;28.40;57.50
14006;DHT22;7078;51.542;7.314;2023-06-19T12:36:53;28.10;58.60
14006;DHT22;7078;51.542;7.314;2023-06-19T12:39:20;28.00;60.20
14006;DHT22;7078;51.542;7.314;2023-06-19T12:41:45;28.10;59.80
14006;DHT22;7078;51.542;7.314;2023-06-19T12:44:11;28.30;59.60
14006;DHT22;7078;51.542;7.314;2023-06-19T12:46:36;28.60;59.50
14006;DHT22;7078;51.542;7.314;2023-06-19T12:49:02;28.80;57.40
14006;DHT22;7078;51.542;7.314;2023-06-19T12:51:27;28.80;55.70
14006;DHT22;7078;51.542;7.314;2023-06-19T12:53:53;28.80;56.40
14006;DHT22;7078;51.542;7.314;2023-06-19T12:56:18;28.70;57.60
14006;DHT22;7078;51.542;7.314;2023-06-19T12:58:44;28.80;58.30
14006;DHT22;7078;51.542;7.314;2023-06-19T13:01:09;28.90;57.50
14006;DHT22;7078;51.542;7.314;2023-06-19T13:03:35;29.30;56.80
14006;DHT22;7078;51.542;7.314;2023-06-19T13:06:00;29.40;57.10
14006;DHT22;7078;51.542;7.314;2023-06-19T13:08:26;29.30;54.60
14006;DHT22;7078;51.542;7.314;2023-06-19T13:10:51;29.10;55.70
14006;DHT22;7078;51.542;7.314;2023-06-19T13:13:17;29.00;56.40
14006;DHT22;7078;51.542;7.314;2023-06-19T13:15:42;28.90;54.80
14006;DHT22;7078;51.542;7.314;2023-06-19T13:18:08;28.70;55.40
14006;DHT22;7078;51.542;7.314;2023-06-19T13:20:33;28.80;56.10
14006;DHT22;7078;51.542;7.314;2023-06-19T13:22:59;28.70;56.30
14006;DHT22;7078;51.542;7.314;2023-06-19T13:25:25;28.40;56.80
14006;DHT22;7078;51.542;7.314;2023-06-19T13:27:50;28.40;56.90
14006;DHT22;7078;51.542;7.314;2023-06-19T13:30:16;28.50;57.20
14006;DHT22;7078;51.542;7.314;2023-06-19T13:32:41;28.60;56.20
14006;DHT22;7078;51.542;7.314;2023-06-19T13:35:08;28.80;57.80
14006;DHT22;7078;51.542;7.314;2023-06-19T13:37:35;28.80;55.20
14006;DHT22;7078;51.542;7.314;2023-06-19T13:40:01;29.00;56.60
14006;DHT22;7078;51.542;7.314;2023-06-19T13:42:28;29.20;53.80
14006;DHT22;7078;51.542;7.314;2023-06-19T13:44:54;29.30;53.70
14006;DHT22;7078;51.542;7.314;2023-06-19T13:47:19;29.30;54.50
14006;DHT22;7078;51.542;7.314;2023-06-19T13:49:45;29.20;53.10
14006;DHT22;7078;51.542;7.314;2023-06-19T13:52:11;29.00;53.30
14006;DHT22;7078;51.542;7.314;2023-06-19T13:54:37;29.10;52.80
14006;DHT22;7078;51.542;7.314;2023-06-19T13:57:02;29.40;55.20
14006;DHT22;7078;51.542;7.314;2023-06-19T13:59:29;29.80;52.20
14006;DHT22;7078;51.542;7.314;2023-06-19T14:01:55;29.80;51.00
14006;DHT22;7078;51.542;7.314;2023-06-19T14:04:20;29.80;52.20
14006;DHT22;7078;51.542;7.314;2023-06-19T14:06:45;29.90;51.80
14006;DHT22;7078;51.542;7.314;2023-06-19T14:09:12;30.10;51.60
14006;DHT22;7078;51.542;7.314;2023-06-19T14:11:37;30.10;53.90
14006;DHT22;7078;51.542;7.314;2023-06-19T14:14:03;29.90;51.20
14006;DHT22;7078;51.542;7.314;2023-06-19T14:16:28;29.80;51.20
14006;DHT22;7078;51.542;7.314;2023-06-19T14:18:54;29.60;52.00
14006;DHT22;7078;51.542;7.314;2023-06-19T14:21:19;29.60;52.10
14006;DHT22;7078;51.542;7.314;2023-06-19T14:23:45;30.00;51.30
14006;DHT22;7078;51.542;7.314;2023-06-19T14:26:11;30.40;50.70
14006;DHT22;7078;51.542;7.314;2023-06-19T14:28:37;30.80;51.20
14006;DHT22;7078;51.542;7.314;2023-06-19T14:31:06;31.00;48.20
14006;DHT22;7078;51.542;7.314;2023-06-19T14:33:32;31.10;47.40
14006;DHT22;7078;51.542;7.314;2023-06-19T14:35:59;31.20;47.20
14006;DHT22;7078;51.542;7.314;2023-06-19T14:38:25;30.90;48.20
14006;DHT22;7078;51.542;7.314;2023-06-19T14:40:53;30.50;47.50
14006;DHT22;7078;51.542;7.314;2023-06-19T14:43:19;30.00;48.60
14006;DHT22;7078;51.542;7.314;2023-06-19T14:45:44;29.70;50.00
14006;DHT22;7078;51.542;7.314;2023-06-19T14:48:10;29.80;51.70
14006;DHT22;7078;51.542;7.314;2023-06-19T14:50:35;29.50;50.00
14006;DHT22;7078;51.542;7.314;2023-06-19T14:53:01;29.40;50.30
14006;DHT22;7078;51.542;7.314;2023-06-19T14:55:26;29.60;49.30
14006;DHT22;7078;51.542;7.314;2023-06-19T14:57:52;30.10;48.40
14006;DHT22;7078;51.542;7.314;2023-06-19T15:00:17;30.50;47.20
14006;DHT22;7078;51.542;7.314;2023-06-19T15:02:43;30.70;46.80
14006;DHT22;7078;51.542;7.314;2023-06-19T15:05:09;30.90;47.20
14006;DHT22;7078;51.542;7.314;2023-06-19T15:07:34;31.20;47.10
14006;DHT22;7078;51.542;7.314;2023-06-19T15:10:00;31.70;47.50
14006;DHT22;7078;51.542;7.314;2023-06-19T15:12:25;32.10;46.90
14006;DHT22;7078;51.542;7.314;2023-06-19T15:14:51;31.80;44.30
14006;DHT22;7078;51.542;7.314;2023-06-19T15:17:16;31.50;45.30
14006;DHT22;7078;51.542;7.314;2023-06-19T15:19:42;31.70;45.90
14006;DHT22;7078;51.542;7.314;2023-06-19T15:22:08;31.90;44.70
14006;DHT22;7078;51.542;7.314;2023-06-19T15:24:33;32.30;44.90
14006;DHT22;7078;51.542;7.314;2023-06-19T15:26:58;32.70;43.00
14006;DHT22;7078;51.542;7.314;2023-06-19T15:29:25;32.90;41.50
14006;DHT22;7078;51.542;7.314;2023-06-19T15:31:52;32.90;40.60
14006;DHT22;7078;51.542;7.314;2023-06-19T15:34:17;33.00;41.00
14006;DHT22;7078;51.542;7.314;2023-06-19T15:36:43;33.10;40.60
14006;DHT22;7078;51.542;7.314;2023-06-19T15:39:08;33.60;40.40
14006;DHT22;7078;51.542;7.314;2023-06-19T15:41:34;34.30;38.30
14006;DHT22;7078;51.542;7.314;2023-06-19T15:44:00;34.70;37.10
14006;DHT22;7078;51.542;7.314;2023-06-19T15:46:25;34.20;37.50